sensor_id;sensor_type;location;lat;lon;timestamp;P1;durP1;ratioP1;P2;durP2;ratioP2
77061;SDS011;65989;51.686;5.138;2023-12-22T00:01:27;22.73;;;2.70;;
77061;SDS011;65989;51.686;5.138;2023-12-22T00:03:52;17.40;;;2.13;;
77061;SDS011;65989;51.686;5.138;2023-12-22T00:06:18;19.23;;;2.50;;
77061;SDS011;65989;51.686;5.138;2023-12-22T00:08:43;18.20;;;2.30;;
77061;SDS011;65989;51.686;5.138;2023-12-22T00:11:08;14.57;;;2.00;;
77061;SDS011;65989;51.686;5.138;2023-12-22T00:13:37;17.93;;;2.37;;
77061;SDS011;65989;51.686;5.138;2023-12-22T00:16:02;21.92;;;2.20;;
77061;SDS011;65989;51.686;5.138;2023-12-22T00:18:28;15.68;;;2.03;;
77061;SDS011;65989;51.686;5.138;2023-12-22T00:20:53;15.57;;;2.23;;
77061;SDS011;65989;51.686;5.138;2023-12-22T00:23:19;30.17;;;2.93;;
77061;SDS011;65989;51.686;5.138;2023-12-22T00:25:44;19.30;;;3.33;;
77061;SDS011;65989;51.686;5.138;2023-12-22T00:28:09;21.60;;;2.30;;
77061;SDS011;65989;51.686;5.138;2023-12-22T00:30:35;17.47;;;2.67;;
77061;SDS011;65989;51.686;5.138;2023-12-22T00:33:00;16.17;;;3.17;;
77061;SDS011;65989;51.686;5.138;2023-12-22T00:35:26;18.87;;;2.90;;
77061;SDS011;65989;51.686;5.138;2023-12-22T00:37:51;19.40;;;3.22;;
77061;SDS011;65989;51.686;5.138;2023-12-22T00:40:18;30.37;;;3.03;;
77061;SDS011;65989;51.686;5.138;2023-12-22T00:42:43;20.60;;;2.75;;
77061;SDS011;65989;51.686;5.138;2023-12-22T00:45:09;21.93;;;2.23;;
77061;SDS011;65989;51.686;5.138;2023-12-22T00:47:34;26.60;;;2.37;;
77061;SDS011;65989;51.686;5.138;2023-12-22T00:50:00;15.18;;;2.70;;
77061;SDS011;65989;51.686;5.138;2023-12-22T00:52:26;17.67;;;2.42;;
77061;SDS011;65989;51.686;5.138;2023-12-22T00:54:52;26.97;;;3.43;;
77061;SDS011;65989;51.686;5.138;2023-12-22T00:57:17;23.50;;;2.43;;
77061;SDS011;65989;51.686;5.138;2023-12-22T00:59:43;23.08;;;3.13;;
77061;SDS011;65989;51.686;5.138;2023-12-22T01:02:12;21.70;;;2.77;;
77061;SDS011;65989;51.686;5.138;2023-12-22T01:04:41;27.88;;;3.28;;
77061;SDS011;65989;51.686;5.138;2023-12-22T01:07:09;28.33;;;3.67;;
77061;SDS011;65989;51.686;5.138;2023-12-22T01:09:35;18.88;;;2.30;;
77061;SDS011;65989;51.686;5.138;2023-12-22T01:12:02;19.77;;;2.80;;
77061;SDS011;65989;51.686;5.138;2023-12-22T01:14:32;34.25;;;3.90;;
77061;SDS011;65989;51.686;5.138;2023-12-22T01:16:58;17.17;;;2.67;;
77061;SDS011;65989;51.686;5.138;2023-12-22T01:19:26;16.58;;;2.63;;
77061;SDS011;65989;51.686;5.138;2023-12-22T01:21:52;23.73;;;2.85;;
77061;SDS011;65989;51.686;5.138;2023-12-22T01:24:17;24.00;;;2.40;;
77061;SDS011;65989;51.686;5.138;2023-12-22T01:26:43;28.60;;;2.80;;
77061;SDS011;65989;51.686;5.138;2023-12-22T01:29:08;25.50;;;2.90;;
77061;SDS011;65989;51.686;5.138;2023-12-22T01:31:33;23.15;;;3.53;;
77061;SDS011;65989;51.686;5.138;2023-12-22T01:33:59;24.37;;;3.10;;
77061;SDS011;65989;51.686;5.138;2023-12-22T01:36:24;23.50;;;2.70;;
77061;SDS011;65989;51.686;5.138;2023-12-22T01:38:50;14.60;;;2.30;;
77061;SDS011;65989;51.686;5.138;2023-12-22T01:41:15;15.67;;;2.97;;
77061;SDS011;65989;51.686;5.138;2023-12-22T01:43:40;16.20;;;2.53;;
77061;SDS011;65989;51.686;5.138;2023-12-22T01:46:06;16.80;;;2.60;;
77061;SDS011;65989;51.686;5.138;2023-12-22T01:48:33;15.77;;;2.28;;
77061;SDS011;65989;51.686;5.138;2023-12-22T01:50:59;17.42;;;2.85;;
77061;SDS011;65989;51.686;5.138;2023-12-22T01:53:26;16.38;;;2.58;;
77061;SDS011;65989;51.686;5.138;2023-12-22T01:55:53;18.23;;;2.43;;
77061;SDS011;65989;51.686;5.138;2023-12-22T01:58:20;19.60;;;2.15;;
77061;SDS011;65989;51.686;5.138;2023-12-22T02:00:46;25.58;;;2.90;;
77061;SDS011;65989;51.686;5.138;2023-12-22T02:03:11;16.80;;;2.20;;
77061;SDS011;65989;51.686;5.138;2023-12-22T02:05:40;17.73;;;2.92;;
77061;SDS011;65989;51.686;5.138;2023-12-22T02:08:06;19.83;;;2.97;;
77061;SDS011;65989;51.686;5.138;2023-12-22T02:10:32;24.30;;;2.93;;
77061;SDS011;65989;51.686;5.138;2023-12-22T02:12:57;19.30;;;2.60;;
77061;SDS011;65989;51.686;5.138;2023-12-22T02:15:23;16.33;;;2.30;;
77061;SDS011;65989;51.686;5.138;2023-12-22T02:17:50;20.10;;;2.33;;
77061;SDS011;65989;51.686;5.138;2023-12-22T02:20:21;23.35;;;2.50;;
77061;SDS011;65989;51.686;5.138;2023-12-22T02:22:50;18.13;;;2.92;;
77061;SDS011;65989;51.686;5.138;2023-12-22T02:25:17;19.47;;;2.97;;
77061;SDS011;65989;51.686;5.138;2023-12-22T02:27:53;13.80;;;2.15;;
77061;SDS011;65989;51.686;5.138;2023-12-22T02:30:26;18.05;;;3.17;;
77061;SDS011;65989;51.686;5.138;2023-12-22T02:32:59;14.60;;;2.10;;
77061;SDS011;65989;51.686;5.138;2023-12-22T02:35:28;14.67;;;2.40;;
77061;SDS011;65989;51.686;5.138;2023-12-22T02:37:58;22.13;;;2.55;;
77061;SDS011;65989;51.686;5.138;2023-12-22T02:40:26;17.52;;;2.63;;
77061;SDS011;65989;51.686;5.138;2023-12-22T02:42:52;21.87;;;2.43;;
77061;SDS011;65989;51.686;5.138;2023-12-22T02:45:18;17.27;;;3.00;;
77061;SDS011;65989;51.686;5.138;2023-12-22T02:47:44;20.27;;;2.30;;
77061;SDS011;65989;51.686;5.138;2023-12-22T02:50:10;19.67;;;2.72;;
77061;SDS011;65989;51.686;5.138;2023-12-22T02:52:38;13.52;;;2.80;;
77061;SDS011;65989;51.686;5.138;2023-12-22T02:55:03;26.20;;;3.00;;
77061;SDS011;65989;51.686;5.138;2023-12-22T02:57:29;13.88;;;2.58;;
77061;SDS011;65989;51.686;5.138;2023-12-22T02:59:55;17.13;;;3.33;;
77061;SDS011;65989;51.686;5.138;2023-12-22T03:02:21;21.05;;;3.15;;
77061;SDS011;65989;51.686;5.138;2023-12-22T03:04:46;13.47;;;2.33;;
77061;SDS011;65989;51.686;5.138;2023-12-22T03:07:12;17.23;;;2.63;;
77061;SDS011;65989;51.686;5.138;2023-12-22T03:09:38;20.25;;;2.83;;
77061;SDS011;65989;51.686;5.138;2023-12-22T03:12:04;12.10;;;2.30;;
77061;SDS011;65989;51.686;5.138;2023-12-22T03:14:30;13.23;;;2.33;;
77061;SDS011;65989;51.686;5.138;2023-12-22T03:16:58;20.52;;;2.67;;
77061;SDS011;65989;51.686;5.138;2023-12-22T03:19:24;15.77;;;2.10;;
77061;SDS011;65989;51.686;5.138;2023-12-22T03:21:49;21.97;;;2.57;;
77061;SDS011;65989;51.686;5.138;2023-12-22T03:24:15;13.50;;;2.43;;
77061;SDS011;65989;51.686;5.138;2023-12-22T03:26:40;20.40;;;2.30;;
77061;SDS011;65989;51.686;5.138;2023-12-22T03:29:06;21.10;;;2.43;;
77061;SDS011;65989;51.686;5.138;2023-12-22T03:31:31;20.93;;;2.93;;
77061;SDS011;65989;51.686;5.138;2023-12-22T03:33:57;15.83;;;2.80;;
77061;SDS011;65989;51.686;5.138;2023-12-22T03:36:22;17.83;;;2.40;;
77061;SDS011;65989;51.686;5.138;2023-12-22T03:38:47;15.73;;;2.40;;
77061;SDS011;65989;51.686;5.138;2023-12-22T03:41:13;10.40;;;2.03;;
77061;SDS011;65989;51.686;5.138;2023-12-22T03:43:38;10.87;;;2.53;;
77061;SDS011;65989;51.686;5.138;2023-12-22T03:46:03;15.83;;;2.50;;
77061;SDS011;65989;51.686;5.138;2023-12-22T03:48:29;14.63;;;2.37;;
77061;SDS011;65989;51.686;5.138;2023-12-22T03:50:54;17.73;;;2.33;;
77061;SDS011;65989;51.686;5.138;2023-12-22T03:53:20;18.60;;;2.93;;
77061;SDS011;65989;51.686;5.138;2023-12-22T03:55:45;16.27;;;2.17;;
77061;SDS011;65989;51.686;5.138;2023-12-22T03:58:11;16.07;;;2.27;;
77061;SDS011;65989;51.686;5.138;2023-12-22T04:00:36;16.47;;;2.23;;
77061;SDS011;65989;51.686;5.138;2023-12-22T04:03:02;10.43;;;1.80;;
77061;SDS011;65989;51.686;5.138;2023-12-22T04:05:27;20.65;;;2.58;;
77061;SDS011;65989;51.686;5.138;2023-12-22T04:07:53;17.20;;;2.00;;
77061;SDS011;65989;51.686;5.138;2023-12-22T04:10:18;14.07;;;2.10;;
77061;SDS011;65989;51.686;5.138;2023-12-22T04:12:44;19.70;;;3.70;;
77061;SDS011;65989;51.686;5.138;2023-12-22T04:15:10;15.43;;;2.23;;
77061;SDS011;65989;51.686;5.138;2023-12-22T04:17:35;9.50;;;1.67;;
77061;SDS011;65989;51.686;5.138;2023-12-22T04:20:01;17.40;;;2.53;;
77061;SDS011;65989;51.686;5.138;2023-12-22T04:22:26;15.93;;;2.33;;
77061;SDS011;65989;51.686;5.138;2023-12-22T04:24:52;13.05;;;2.17;;
77061;SDS011;65989;51.686;5.138;2023-12-22T04:27:17;19.63;;;3.07;;
77061;SDS011;65989;51.686;5.138;2023-12-22T04:29:43;20.37;;;2.93;;
77061;SDS011;65989;51.686;5.138;2023-12-22T04:32:08;13.52;;;2.50;;
77061;SDS011;65989;51.686;5.138;2023-12-22T04:34:34;15.50;;;2.07;;
77061;SDS011;65989;51.686;5.138;2023-12-22T04:36:59;21.63;;;2.50;;
77061;SDS011;65989;51.686;5.138;2023-12-22T04:39:25;16.10;;;2.43;;
77061;SDS011;65989;51.686;5.138;2023-12-22T04:41:50;17.55;;;2.53;;
77061;SDS011;65989;51.686;5.138;2023-12-22T04:44:15;13.87;;;2.47;;
77061;SDS011;65989;51.686;5.138;2023-12-22T04:46:41;17.90;;;2.70;;
77061;SDS011;65989;51.686;5.138;2023-12-22T04:49:06;18.00;;;2.47;;
77061;SDS011;65989;51.686;5.138;2023-12-22T04:51:31;17.97;;;2.37;;
77061;SDS011;65989;51.686;5.138;2023-12-22T04:53:57;16.57;;;2.03;;
77061;SDS011;65989;51.686;5.138;2023-12-22T04:56:22;16.10;;;1.83;;
77061;SDS011;65989;51.686;5.138;2023-12-22T04:58:47;12.47;;;2.00;;
77061;SDS011;65989;51.686;5.138;2023-12-22T05:01:13;13.47;;;1.87;;
77061;SDS011;65989;51.686;5.138;2023-12-22T05:03:38;18.70;;;2.40;;
77061;SDS011;65989;51.686;5.138;2023-12-22T05:06:03;12.80;;;2.10;;
77061;SDS011;65989;51.686;5.138;2023-12-22T05:08:29;10.37;;;1.90;;
77061;SDS011;65989;51.686;5.138;2023-12-22T05:10:54;13.60;;;1.90;;
77061;SDS011;65989;51.686;5.138;2023-12-22T05:13:20;18.55;;;1.80;;
77061;SDS011;65989;51.686;5.138;2023-12-22T05:15:45;17.63;;;2.23;;
77061;SDS011;65989;51.686;5.138;2023-12-22T05:18:10;8.90;;;1.80;;
77061;SDS011;65989;51.686;5.138;2023-12-22T05:20:36;13.93;;;2.23;;
77061;SDS011;65989;51.686;5.138;2023-12-22T05:23:01;22.60;;;2.65;;
77061;SDS011;65989;51.686;5.138;2023-12-22T05:25:27;17.43;;;2.33;;
77061;SDS011;65989;51.686;5.138;2023-12-22T05:27:54;24.50;;;3.15;;
77061;SDS011;65989;51.686;5.138;2023-12-22T05:30:19;19.17;;;3.27;;
77061;SDS011;65989;51.686;5.138;2023-12-22T05:32:45;27.23;;;4.00;;
77061;SDS011;65989;51.686;5.138;2023-12-22T05:35:10;21.53;;;3.77;;
77061;SDS011;65989;51.686;5.138;2023-12-22T05:37:35;25.63;;;3.97;;
77061;SDS011;65989;51.686;5.138;2023-12-22T05:40:01;28.43;;;4.13;;
77061;SDS011;65989;51.686;5.138;2023-12-22T05:42:27;31.38;;;4.38;;
77061;SDS011;65989;51.686;5.138;2023-12-22T05:44:52;25.83;;;4.20;;
77061;SDS011;65989;51.686;5.138;2023-12-22T05:47:18;30.13;;;3.77;;
77061;SDS011;65989;51.686;5.138;2023-12-22T05:49:43;28.27;;;3.87;;
77061;SDS011;65989;51.686;5.138;2023-12-22T05:52:09;27.73;;;3.97;;
77061;SDS011;65989;51.686;5.138;2023-12-22T05:54:37;25.73;;;3.47;;
77061;SDS011;65989;51.686;5.138;2023-12-22T05:57:03;26.88;;;3.95;;
77061;SDS011;65989;51.686;5.138;2023-12-22T05:59:31;21.20;;;4.20;;
77061;SDS011;65989;51.686;5.138;2023-12-22T06:02:00;30.13;;;4.45;;
77061;SDS011;65989;51.686;5.138;2023-12-22T06:04:26;37.03;;;5.05;;
77061;SDS011;65989;51.686;5.138;2023-12-22T06:06:51;34.77;;;4.63;;
77061;SDS011;65989;51.686;5.138;2023-12-22T06:09:17;30.15;;;4.07;;
77061;SDS011;65989;51.686;5.138;2023-12-22T06:11:45;33.92;;;5.10;;
77061;SDS011;65989;51.686;5.138;2023-12-22T06:14:11;36.83;;;4.17;;
77061;SDS011;65989;51.686;5.138;2023-12-22T06:16:36;38.92;;;4.15;;
77061;SDS011;65989;51.686;5.138;2023-12-22T06:19:01;30.93;;;4.27;;
77061;SDS011;65989;51.686;5.138;2023-12-22T06:21:27;32.47;;;4.60;;
77061;SDS011;65989;51.686;5.138;2023-12-22T06:23:52;32.47;;;4.03;;
77061;SDS011;65989;51.686;5.138;2023-12-22T06:26:18;42.83;;;5.53;;
77061;SDS011;65989;51.686;5.138;2023-12-22T06:28:43;34.13;;;4.43;;
77061;SDS011;65989;51.686;5.138;2023-12-22T06:31:15;28.13;;;4.43;;
77061;SDS011;65989;51.686;5.138;2023-12-22T06:33:45;32.63;;;4.55;;
77061;SDS011;65989;51.686;5.138;2023-12-22T06:36:23;37.40;;;5.20;;
77061;SDS011;65989;51.686;5.138;2023-12-22T06:38:52;43.38;;;5.45;;
77061;SDS011;65989;51.686;5.138;2023-12-22T06:41:24;34.85;;;4.88;;
77061;SDS011;65989;51.686;5.138;2023-12-22T06:43:51;32.70;;;5.30;;
77061;SDS011;65989;51.686;5.138;2023-12-22T06:46:17;32.03;;;4.73;;
77061;SDS011;65989;51.686;5.138;2023-12-22T06:48:43;35.95;;;4.80;;
77061;SDS011;65989;51.686;5.138;2023-12-22T06:51:18;32.97;;;5.13;;
77061;SDS011;65989;51.686;5.138;2023-12-22T06:53:55;32.97;;;4.70;;
77061;SDS011;65989;51.686;5.138;2023-12-22T06:56:22;33.63;;;4.30;;
77061;SDS011;65989;51.686;5.138;2023-12-22T06:58:52;33.95;;;4.78;;
77061;SDS011;65989;51.686;5.138;2023-12-22T07:03:50;30.27;;;4.20;;
77061;SDS011;65989;51.686;5.138;2023-12-22T07:06:16;36.47;;;4.77;;
77061;SDS011;65989;51.686;5.138;2023-12-22T07:08:43;42.78;;;5.80;;
77061;SDS011;65989;51.686;5.138;2023-12-22T07:11:09;38.58;;;4.85;;
77061;SDS011;65989;51.686;5.138;2023-12-22T07:13:35;32.67;;;5.20;;
77061;SDS011;65989;51.686;5.138;2023-12-22T07:16:01;38.05;;;5.28;;
77061;SDS011;65989;51.686;5.138;2023-12-22T07:18:27;44.15;;;6.00;;
77061;SDS011;65989;51.686;5.138;2023-12-22T07:20:55;36.85;;;5.00;;
77061;SDS011;65989;51.686;5.138;2023-12-22T07:23:22;31.90;;;4.50;;
77061;SDS011;65989;51.686;5.138;2023-12-22T07:25:47;28.85;;;4.43;;
77061;SDS011;65989;51.686;5.138;2023-12-22T07:28:13;30.30;;;4.33;;
77061;SDS011;65989;51.686;5.138;2023-12-22T07:30:38;26.97;;;4.33;;
77061;SDS011;65989;51.686;5.138;2023-12-22T07:33:04;42.70;;;5.40;;
77061;SDS011;65989;51.686;5.138;2023-12-22T07:35:29;30.35;;;4.63;;
77061;SDS011;65989;51.686;5.138;2023-12-22T07:37:54;30.33;;;3.53;;
77061;SDS011;65989;51.686;5.138;2023-12-22T07:40:20;29.77;;;4.50;;
77061;SDS011;65989;51.686;5.138;2023-12-22T07:42:45;27.23;;;3.63;;
77061;SDS011;65989;51.686;5.138;2023-12-22T07:45:11;31.73;;;3.73;;
77061;SDS011;65989;51.686;5.138;2023-12-22T07:47:36;37.42;;;4.30;;
77061;SDS011;65989;51.686;5.138;2023-12-22T07:50:02;40.53;;;4.53;;
77061;SDS011;65989;51.686;5.138;2023-12-22T07:52:28;41.58;;;5.15;;
77061;SDS011;65989;51.686;5.138;2023-12-22T07:54:53;28.97;;;3.67;;
77061;SDS011;65989;51.686;5.138;2023-12-22T07:57:19;37.07;;;4.20;;
77061;SDS011;65989;51.686;5.138;2023-12-22T07:59:44;28.70;;;3.80;;
77061;SDS011;65989;51.686;5.138;2023-12-22T08:02:09;25.07;;;3.63;;
77061;SDS011;65989;51.686;5.138;2023-12-22T08:04:35;28.87;;;3.60;;
77061;SDS011;65989;51.686;5.138;2023-12-22T08:07:00;19.90;;;3.43;;
77061;SDS011;65989;51.686;5.138;2023-12-22T08:09:27;29.85;;;4.28;;
77061;SDS011;65989;51.686;5.138;2023-12-22T08:11:52;20.57;;;3.80;;
77061;SDS011;65989;51.686;5.138;2023-12-22T08:14:21;21.80;;;3.47;;
77061;SDS011;65989;51.686;5.138;2023-12-22T08:16:46;18.80;;;2.92;;
77061;SDS011;65989;51.686;5.138;2023-12-22T08:19:12;17.97;;;3.33;;
77061;SDS011;65989;51.686;5.138;2023-12-22T08:21:37;27.30;;;3.60;;
77061;SDS011;65989;51.686;5.138;2023-12-22T08:24:03;20.73;;;3.15;;
77061;SDS011;65989;51.686;5.138;2023-12-22T08:26:28;21.53;;;3.00;;
77061;SDS011;65989;51.686;5.138;2023-12-22T08:28:53;18.57;;;3.03;;
77061;SDS011;65989;51.686;5.138;2023-12-22T08:31:19;24.30;;;2.93;;
77061;SDS011;65989;51.686;5.138;2023-12-22T08:33:44;20.67;;;2.67;;
77061;SDS011;65989;51.686;5.138;2023-12-22T08:36:10;27.73;;;3.43;;
77061;SDS011;65989;51.686;5.138;2023-12-22T08:38:36;21.83;;;2.50;;
77061;SDS011;65989;51.686;5.138;2023-12-22T08:41:05;19.50;;;2.78;;
77061;SDS011;65989;51.686;5.138;2023-12-22T08:43:33;17.77;;;2.60;;
77061;SDS011;65989;51.686;5.138;2023-12-22T08:45:59;13.02;;;2.55;;
77061;SDS011;65989;51.686;5.138;2023-12-22T08:48:25;16.43;;;2.73;;
77061;SDS011;65989;51.686;5.138;2023-12-22T08:50:50;15.07;;;2.67;;
77061;SDS011;65989;51.686;5.138;2023-12-22T08:53:16;14.13;;;2.42;;
77061;SDS011;65989;51.686;5.138;2023-12-22T08:55:41;13.67;;;1.77;;
77061;SDS011;65989;51.686;5.138;2023-12-22T08:58:06;12.37;;;2.10;;
77061;SDS011;65989;51.686;5.138;2023-12-22T09:00:32;8.93;;;2.60;;
77061;SDS011;65989;51.686;5.138;2023-12-22T09:02:57;12.80;;;2.30;;
77061;SDS011;65989;51.686;5.138;2023-12-22T09:05:22;11.23;;;2.15;;
77061;SDS011;65989;51.686;5.138;2023-12-22T09:07:48;11.10;;;1.87;;
77061;SDS011;65989;51.686;5.138;2023-12-22T09:10:13;19.13;;;2.40;;
77061;SDS011;65989;51.686;5.138;2023-12-22T09:12:39;14.37;;;2.13;;
77061;SDS011;65989;51.686;5.138;2023-12-22T09:15:04;13.07;;;2.30;;
77061;SDS011;65989;51.686;5.138;2023-12-22T09:17:29;9.73;;;1.52;;
77061;SDS011;65989;51.686;5.138;2023-12-22T09:19:55;7.77;;;2.00;;
77061;SDS011;65989;51.686;5.138;2023-12-22T09:22:20;9.37;;;2.10;;
77061;SDS011;65989;51.686;5.138;2023-12-22T09:24:46;10.70;;;1.90;;
77061;SDS011;65989;51.686;5.138;2023-12-22T09:27:12;11.73;;;1.73;;
77061;SDS011;65989;51.686;5.138;2023-12-22T09:29:38;11.30;;;2.15;;
77061;SDS011;65989;51.686;5.138;2023-12-22T09:32:03;9.73;;;1.67;;
77061;SDS011;65989;51.686;5.138;2023-12-22T09:34:29;9.93;;;1.70;;
77061;SDS011;65989;51.686;5.138;2023-12-22T09:36:54;10.53;;;1.90;;
77061;SDS011;65989;51.686;5.138;2023-12-22T09:39:20;7.97;;;1.90;;
77061;SDS011;65989;51.686;5.138;2023-12-22T09:41:47;9.25;;;1.92;;
77061;SDS011;65989;51.686;5.138;2023-12-22T09:44:15;12.32;;;1.92;;
77061;SDS011;65989;51.686;5.138;2023-12-22T09:46:43;9.07;;;2.00;;
77061;SDS011;65989;51.686;5.138;2023-12-22T09:49:10;10.95;;;2.00;;
77061;SDS011;65989;51.686;5.138;2023-12-22T09:51:36;14.75;;;2.08;;
77061;SDS011;65989;51.686;5.138;2023-12-22T09:54:02;13.48;;;2.20;;
77061;SDS011;65989;51.686;5.138;2023-12-22T09:56:29;10.40;;;2.35;;
77061;SDS011;65989;51.686;5.138;2023-12-22T09:58:56;12.37;;;2.10;;
77061;SDS011;65989;51.686;5.138;2023-12-22T10:01:22;13.20;;;2.33;;
77061;SDS011;65989;51.686;5.138;2023-12-22T10:03:48;11.38;;;2.08;;
77061;SDS011;65989;51.686;5.138;2023-12-22T10:06:14;10.87;;;2.20;;
77061;SDS011;65989;51.686;5.138;2023-12-22T10:08:42;10.95;;;2.20;;
77061;SDS011;65989;51.686;5.138;2023-12-22T10:11:08;8.07;;;2.05;;
77061;SDS011;65989;51.686;5.138;2023-12-22T10:13:33;11.27;;;2.17;;
77061;SDS011;65989;51.686;5.138;2023-12-22T10:16:02;9.27;;;1.90;;
77061;SDS011;65989;51.686;5.138;2023-12-22T10:18:32;10.60;;;1.92;;
77061;SDS011;65989;51.686;5.138;2023-12-22T10:20:58;10.93;;;1.98;;
77061;SDS011;65989;51.686;5.138;2023-12-22T10:23:24;7.88;;;1.92;;
77061;SDS011;65989;51.686;5.138;2023-12-22T10:25:50;9.97;;;2.00;;
77061;SDS011;65989;51.686;5.138;2023-12-22T10:28:16;7.20;;;1.98;;
77061;SDS011;65989;51.686;5.138;2023-12-22T10:30:42;17.23;;;2.83;;
77061;SDS011;65989;51.686;5.138;2023-12-22T10:33:11;9.52;;;2.20;;
77061;SDS011;65989;51.686;5.138;2023-12-22T10:35:36;10.70;;;2.35;;
77061;SDS011;65989;51.686;5.138;2023-12-22T10:38:02;10.27;;;2.17;;
77061;SDS011;65989;51.686;5.138;2023-12-22T10:40:29;10.57;;;2.00;;
77061;SDS011;65989;51.686;5.138;2023-12-22T10:42:54;7.47;;;1.60;;
77061;SDS011;65989;51.686;5.138;2023-12-22T10:45:20;11.50;;;2.13;;
77061;SDS011;65989;51.686;5.138;2023-12-22T10:47:45;8.40;;;2.10;;
77061;SDS011;65989;51.686;5.138;2023-12-22T10:50:15;13.73;;;2.30;;
77061;SDS011;65989;51.686;5.138;2023-12-22T10:52:40;10.00;;;2.40;;
77061;SDS011;65989;51.686;5.138;2023-12-22T10:55:06;9.87;;;2.43;;
77061;SDS011;65989;51.686;5.138;2023-12-22T10:57:32;11.57;;;2.20;;
77061;SDS011;65989;51.686;5.138;2023-12-22T11:00:03;13.05;;;2.17;;
77061;SDS011;65989;51.686;5.138;2023-12-22T11:02:32;11.30;;;2.03;;
77061;SDS011;65989;51.686;5.138;2023-12-22T11:05:05;9.15;;;2.15;;
77061;SDS011;65989;51.686;5.138;2023-12-22T11:07:32;13.85;;;2.30;;
77061;SDS011;65989;51.686;5.138;2023-12-22T11:10:03;8.85;;;2.20;;
77061;SDS011;65989;51.686;5.138;2023-12-22T11:12:37;10.27;;;2.50;;
77061;SDS011;65989;51.686;5.138;2023-12-22T11:15:04;13.30;;;2.20;;
77061;SDS011;65989;51.686;5.138;2023-12-22T11:17:34;16.02;;;2.47;;
77061;SDS011;65989;51.686;5.138;2023-12-22T11:20:00;11.65;;;2.53;;
77061;SDS011;65989;51.686;5.138;2023-12-22T11:22:28;12.80;;;2.08;;
77061;SDS011;65989;51.686;5.138;2023-12-22T11:24:54;11.60;;;2.35;;
77061;SDS011;65989;51.686;5.138;2023-12-22T11:27:22;11.13;;;1.80;;
77061;SDS011;65989;51.686;5.138;2023-12-22T11:29:50;9.70;;;2.15;;
77061;SDS011;65989;51.686;5.138;2023-12-22T11:32:16;14.63;;;2.33;;
77061;SDS011;65989;51.686;5.138;2023-12-22T11:34:43;11.93;;;1.90;;
77061;SDS011;65989;51.686;5.138;2023-12-22T11:37:11;15.35;;;2.60;;
77061;SDS011;65989;51.686;5.138;2023-12-22T11:39:41;14.13;;;2.45;;
77061;SDS011;65989;51.686;5.138;2023-12-22T11:42:07;10.82;;;2.53;;
77061;SDS011;65989;51.686;5.138;2023-12-22T11:44:36;9.02;;;2.20;;
77061;SDS011;65989;51.686;5.138;2023-12-22T11:47:08;12.07;;;2.00;;
77061;SDS011;65989;51.686;5.138;2023-12-22T11:49:36;9.73;;;2.13;;
77061;SDS011;65989;51.686;5.138;2023-12-22T11:54:47;12.57;;;2.23;;
77061;SDS011;65989;51.686;5.138;2023-12-22T11:59:52;16.85;;;2.20;;
77061;SDS011;65989;51.686;5.138;2023-12-22T12:02:17;9.10;;;2.40;;
77061;SDS011;65989;51.686;5.138;2023-12-22T12:04:43;10.40;;;2.20;;
77061;SDS011;65989;51.686;5.138;2023-12-22T12:10:05;9.20;;;2.10;;
77061;SDS011;65989;51.686;5.138;2023-12-22T12:12:33;16.85;;;2.67;;
77061;SDS011;65989;51.686;5.138;2023-12-22T12:15:02;11.60;;;2.35;;
77061;SDS011;65989;51.686;5.138;2023-12-22T12:17:32;10.98;;;2.40;;
77061;SDS011;65989;51.686;5.138;2023-12-22T12:19:58;12.07;;;1.90;;
77061;SDS011;65989;51.686;5.138;2023-12-22T12:22:24;10.55;;;2.30;;
77061;SDS011;65989;51.686;5.138;2023-12-22T12:24:51;12.10;;;2.10;;
77061;SDS011;65989;51.686;5.138;2023-12-22T12:27:17;8.07;;;1.77;;
77061;SDS011;65989;51.686;5.138;2023-12-22T12:29:44;12.48;;;2.38;;
77061;SDS011;65989;51.686;5.138;2023-12-22T12:32:10;11.30;;;1.90;;
77061;SDS011;65989;51.686;5.138;2023-12-22T12:34:39;10.55;;;2.30;;
77061;SDS011;65989;51.686;5.138;2023-12-22T12:37:07;13.20;;;2.47;;
77061;SDS011;65989;51.686;5.138;2023-12-22T12:39:33;13.70;;;2.97;;
77061;SDS011;65989;51.686;5.138;2023-12-22T12:42:00;11.32;;;1.90;;
77061;SDS011;65989;51.686;5.138;2023-12-22T12:44:31;9.55;;;1.77;;
77061;SDS011;65989;51.686;5.138;2023-12-22T12:46:58;13.13;;;2.22;;
77061;SDS011;65989;51.686;5.138;2023-12-22T12:49:23;16.73;;;2.20;;
77061;SDS011;65989;51.686;5.138;2023-12-22T12:51:52;9.77;;;2.00;;
77061;SDS011;65989;51.686;5.138;2023-12-22T12:54:18;13.50;;;2.60;;
77061;SDS011;65989;51.686;5.138;2023-12-22T12:56:44;10.57;;;2.00;;
77061;SDS011;65989;51.686;5.138;2023-12-22T12:59:12;7.07;;;1.95;;
77061;SDS011;65989;51.686;5.138;2023-12-22T13:01:43;17.48;;;2.63;;
77061;SDS011;65989;51.686;5.138;2023-12-22T13:04:12;9.13;;;1.90;;
77061;SDS011;65989;51.686;5.138;2023-12-22T13:09:14;15.68;;;2.03;;
77061;SDS011;65989;51.686;5.138;2023-12-22T13:11:40;13.82;;;2.20;;
77061;SDS011;65989;51.686;5.138;2023-12-22T13:14:08;8.45;;;2.10;;
77061;SDS011;65989;51.686;5.138;2023-12-22T13:16:36;11.73;;;2.28;;
77061;SDS011;65989;51.686;5.138;2023-12-22T13:19:02;10.30;;;2.33;;
77061;SDS011;65989;51.686;5.138;2023-12-22T13:21:28;15.83;;;2.70;;
77061;SDS011;65989;51.686;5.138;2023-12-22T13:24:13;14.35;;;2.33;;
77061;SDS011;65989;51.686;5.138;2023-12-22T13:26:40;12.33;;;2.77;;
77061;SDS011;65989;51.686;5.138;2023-12-22T13:29:06;12.57;;;2.85;;
77061;SDS011;65989;51.686;5.138;2023-12-22T13:31:32;11.77;;;2.60;;
77061;SDS011;65989;51.686;5.138;2023-12-22T13:33:59;12.57;;;2.30;;
77061;SDS011;65989;51.686;5.138;2023-12-22T13:36:25;11.18;;;2.28;;
77061;SDS011;65989;51.686;5.138;2023-12-22T13:38:50;9.43;;;2.30;;
77061;SDS011;65989;51.686;5.138;2023-12-22T13:41:17;14.05;;;2.70;;
77061;SDS011;65989;51.686;5.138;2023-12-22T13:43:42;12.77;;;2.53;;
77061;SDS011;65989;51.686;5.138;2023-12-22T13:46:14;11.40;;;2.10;;
77061;SDS011;65989;51.686;5.138;2023-12-22T13:48:39;12.67;;;2.30;;
77061;SDS011;65989;51.686;5.138;2023-12-22T13:51:05;9.23;;;2.17;;
77061;SDS011;65989;51.686;5.138;2023-12-22T13:53:31;13.68;;;2.17;;
77061;SDS011;65989;51.686;5.138;2023-12-22T13:55:57;9.93;;;2.37;;
77061;SDS011;65989;51.686;5.138;2023-12-22T13:58:23;17.77;;;2.83;;
77061;SDS011;65989;51.686;5.138;2023-12-22T14:00:49;9.10;;;2.30;;
77061;SDS011;65989;51.686;5.138;2023-12-22T14:03:15;10.30;;;2.30;;
77061;SDS011;65989;51.686;5.138;2023-12-22T14:05:47;15.17;;;2.70;;
77061;SDS011;65989;51.686;5.138;2023-12-22T14:08:14;14.82;;;2.67;;
77061;SDS011;65989;51.686;5.138;2023-12-22T14:10:46;10.43;;;2.28;;
77061;SDS011;65989;51.686;5.138;2023-12-22T14:13:13;12.55;;;2.30;;
77061;SDS011;65989;51.686;5.138;2023-12-22T14:15:40;11.90;;;2.63;;
77061;SDS011;65989;51.686;5.138;2023-12-22T14:18:06;13.93;;;2.35;;
77061;SDS011;65989;51.686;5.138;2023-12-22T14:20:32;14.70;;;2.30;;
77061;SDS011;65989;51.686;5.138;2023-12-22T14:22:57;12.55;;;2.33;;
77061;SDS011;65989;51.686;5.138;2023-12-22T14:25:23;12.73;;;2.43;;
77061;SDS011;65989;51.686;5.138;2023-12-22T14:27:50;16.15;;;2.25;;
77061;SDS011;65989;51.686;5.138;2023-12-22T14:30:15;14.50;;;2.47;;
77061;SDS011;65989;51.686;5.138;2023-12-22T14:32:42;11.18;;;1.90;;
77061;SDS011;65989;51.686;5.138;2023-12-22T14:35:07;14.47;;;2.37;;
77061;SDS011;65989;51.686;5.138;2023-12-22T14:37:32;18.13;;;2.43;;
77061;SDS011;65989;51.686;5.138;2023-12-22T14:39:59;17.05;;;2.80;;
77061;SDS011;65989;51.686;5.138;2023-12-22T14:42:24;11.77;;;2.47;;
77061;SDS011;65989;51.686;5.138;2023-12-22T14:44:49;13.37;;;2.50;;